Líbí se Vám tento web? Budeme velmi rádi, pokud přidáte hodnocení +1

Seznam meteostanic a jejich METAR

Vyhledat místa podle abecedy:
A B C D E F G H I J K L M N O P Q R S T U V W X Y Z

Filtrovat:

ID stanice:
a/nebo
Název místa (fulltext):
 
Místo (ID)Naposledy načteno 
Brno - Tuřany (Brno/Tu) 29.05.2017 03:00 UTC Zobrazit data
Místo: Brno - Tuřany
Teplota: 14 °C (pocitová: 11.3 °C)
Vítr: 3 m/s z(e) 30°
Počasí: skorojasno
Dohlednost: 35 km
Zákl. oblačnosti: 1/8 6900 m
Vlhkost: 63%
Červená - Opava (Cervena/uL) 29.05.2017 03:00 UTC Zobrazit data
Místo: Červená - Opava
Teplota: 12 °C (pocitová: 6.9 °C)
Vítr: 7 m/s z(e) 220°
Počasí: zataženo
Dohlednost: 35 km
Zákl. oblačnosti: 2/8 5400 m;7/8 6300 m
Vlhkost: 63%
České Budějovice (C.Budej/po) 29.05.2017 03:00 UTC Zobrazit data
Místo: České Budějovice
Teplota: 11 °C (pocitová: 8.2 °C)
Vítr: 2 m/s z(e) 160°
Počasí:
Dohlednost: 35 km
Zákl. oblačnosti: N/A
Vlhkost: 88%
Cheb (Cheb) 29.05.2017 03:00 UTC Zobrazit data
Místo: Cheb
Teplota: 12 °C (pocitová: 10.4 °C)
Vítr: 1 m/s z(e) 310°
Počasí:
Dohlednost: 20 km
Zákl. oblačnosti: N/A
Vlhkost: 88%
Chotusice - Čáslav (Caslav) 29.05.2017 03:00 UTC Zobrazit data
Místo: Chotusice - Čáslav
Teplota: 14 °C (pocitová: 12.9 °C)
Vítr: 1 m/s z(e) 170°
Počasí: skoro zataženo
Dohlednost: 20 km
Zákl. oblačnosti: 5/8 6000 m
Vlhkost: 72%
Churáňov (Churanov) 29.05.2017 03:00 UTC Zobrazit data
Místo: Churáňov
Teplota: 14 °C (pocitová: 12.1 °C)
Vítr: 2 m/s z(e) 200°
Počasí:
Dohlednost: 20 km
Zákl. oblačnosti: N/A
Vlhkost: 51%
Doksany - Litoměřice (Doksany) 29.05.2017 03:00 UTC Zobrazit data
Místo: Doksany - Litoměřice
Teplota: 12 °C (pocitová: 10.4 °C)
Vítr: 1 m/s z(e) 0°
Počasí:
Dohlednost: 14 km
Zákl. oblačnosti: N/A
Vlhkost: 94%
Dukovany (Dukovany) 29.05.2017 03:00 UTC Zobrazit data
Místo: Dukovany
Teplota: 11 °C (pocitová: 8.2 °C)
Vítr: 2 m/s z(e) 70°
Počasí: skorojasno
Dohlednost: 20 km
Zákl. oblačnosti: 1/8 6900 m
Vlhkost: 77%
Holešov (Holesov) 29.05.2017 03:00 UTC Zobrazit data
Místo: Holešov
Teplota: 11 °C (pocitová: 6.7 °C)
Vítr: 4 m/s z(e) 140°
Počasí: skorojasno
Dohlednost: 20 km
Zákl. oblačnosti: 1/8 6900 m
Vlhkost: 82%
Kadaň - Tušimice (Tusimice) 29.05.2017 03:00 UTC Zobrazit data
Místo: Kadaň - Tušimice
Teplota: 12 °C (pocitová: 9.5 °C)
Vítr: 2 m/s z(e) 270°
Počasí:
Dohlednost: 35 km
Zákl. oblačnosti: N/A
Vlhkost: 82%
Karlovy Vary (K.Vary) 29.05.2017 03:00 UTC Zobrazit data
Místo: Karlovy Vary
Teplota: 12 °C (pocitová: 10.4 °C)
Vítr: 1 m/s z(e) 190°
Počasí: skorojasno
Dohlednost: 50 km
Zákl. oblačnosti: 1/8 6000 m
Vlhkost: 72%
Kocelovice (Kocelovice) 29.05.2017 03:00 UTC Zobrazit data
Místo: Kocelovice
Teplota: 13 °C (pocitová: 10.8 °C)
Vítr: 2 m/s z(e) 50°
Počasí:
Dohlednost: 20 km
Zákl. oblačnosti: N/A
Vlhkost: 77%
Kopisty (Kopisty) 28.05.2017 21:00 UTC Zobrazit data
Místo: Kopisty
Teplota: 16 °C (pocitová: 23.1 °C)
Vítr: 0 m/s z(e) 0°
Počasí: oblačno
Dohlednost: 25 km
Zákl. oblačnosti: 3/8 6600 m
Vlhkost: 77%
Kostelní Myslová (K.Myslova) 29.05.2017 03:00 UTC Zobrazit data
Místo: Kostelní Myslová
Teplota: 13 °C (pocitová: 10 °C)
Vítr: 3 m/s z(e) 350°
Počasí:
Dohlednost: 20 km
Zákl. oblačnosti: N/A
Vlhkost: 67%
Křešín - Kramolín (Kramolin) 29.05.2017 03:00 UTC Zobrazit data
Místo: Křešín - Kramolín
Teplota: 11 °C (pocitová: 8.2 °C)
Vítr: 2 m/s z(e) 100°
Počasí:
Dohlednost: 20 km
Zákl. oblačnosti: N/A
Vlhkost: 77%
Kuchařovice - Znojmo (Kucharovic) 29.05.2017 03:00 UTC Zobrazit data
Místo: Kuchařovice - Znojmo
Teplota: 13 °C (pocitová: 10 °C)
Vítr: 3 m/s z(e) 50°
Počasí:
Dohlednost: 20 km
Zákl. oblačnosti: N/A
Vlhkost: 67%
Liberec (Liberec) 29.05.2017 03:00 UTC Zobrazit data
Místo: Liberec
Teplota: 16 °C (pocitová: 13.5 °C)
Vítr: 4 m/s z(e) 150°
Počasí:
Dohlednost: 20 km
Zákl. oblačnosti: N/A
Vlhkost: 52%
Luká (Luka) 29.05.2017 03:00 UTC Zobrazit data
Místo: Luká
Teplota: 14 °C (pocitová: 12.1 °C)
Vítr: 2 m/s z(e) 150°
Počasí: skoro zataženo
Dohlednost: 20 km
Zákl. oblačnosti: 5/8 5700 m
Vlhkost: 59%
Lysá Hora (Lysa Hora) 29.05.2017 03:00 UTC Zobrazit data
Místo: Lysá Hora
Teplota: 9 °C (pocitová: 1.2 °C)
Vítr: 12 m/s z(e) 190°
Počasí:
Dohlednost: 35 km
Zákl. oblačnosti: N/A
Vlhkost: 71%
Milešovka (Milesovka) 29.05.2017 03:00 UTC Zobrazit data
Místo: Milešovka
Teplota: 16 °C (pocitová: 12.7 °C)
Vítr: 7 m/s z(e) 220°
Počasí: skorojasno
Dohlednost: 60 km
Zákl. oblačnosti: 1/8 2400 m
Vlhkost: 59%
Mošnov (Ostrava/Mo) 29.05.2017 03:00 UTC Zobrazit data
Místo: Mošnov
Teplota: 12 °C (pocitová: 8.7 °C)
Vítr: 3 m/s z(e) 200°
Počasí: oblačno
Dohlednost: 30 km
Zákl. oblačnosti: 2/8 4800 m
Vlhkost: 77%
Náměšť nad Oslavou (Namest n/O) 29.05.2017 03:00 UTC Zobrazit data
Místo: Náměšť nad Oslavou
Teplota: 12 °C (pocitová: 9.5 °C)
Vítr: 2 m/s z(e) 80°
Počasí: skoro zataženo
Dohlednost: 30 km
Zákl. oblačnosti: 5/8 6600 m
Vlhkost: 72%
Pardubice (Pardubice) 29.05.2017 03:00 UTC Zobrazit data
Místo: Pardubice
Teplota: 12 °C (pocitová: 8.7 °C)
Vítr: 3 m/s z(e) 90°
Počasí: skoro zataženo
Dohlednost: 25 km
Zákl. oblačnosti: 7/8 5400 m
Vlhkost: 77%
Pec pod Sněžkou (Pec p.Snez) 29.05.2017 03:00 UTC Zobrazit data
Místo: Pec pod Sněžkou
Teplota: 10 °C (pocitová: 19.3 °C)
Vítr: 0 m/s z(e) 0°
Počasí: zataženo
Dohlednost: 20 km
Zákl. oblačnosti: 1/8 3000 m;7/8 3600 m
Vlhkost: 82%
Plzeň město - Mikulka (Plzen/Miku) 29.05.2017 03:00 UTC Zobrazit data
Místo: Plzeň město - Mikulka
Teplota: 12 °C (pocitová: 20.6 °C)
Vítr: 0 m/s z(e) 0°
Počasí:
Dohlednost: 35 km
Zákl. oblačnosti: N/A
Vlhkost: 88%
Polom (Polom) 29.05.2017 03:00 UTC Zobrazit data
Místo: Polom
Teplota: 15 °C (pocitová: 11.8 °C)
Vítr: 5 m/s z(e) 170°
Počasí: skorojasno
Dohlednost: 40 km
Zákl. oblačnosti: 1/8 6600 m
Vlhkost: 55%
Praha - Karlov (Praha/Kar) 29.05.2017 03:00 UTC Zobrazit data
Místo: Praha - Karlov
Teplota: 17 °C (pocitová: 16.6 °C)
Vítr: 1 m/s z(e) 120°
Počasí:
Dohlednost: 20 km
Zákl. oblačnosti: N/A
Vlhkost: 59%
Praha - Kbely (Praha/Kbe) 29.05.2017 03:00 UTC Zobrazit data
Místo: Praha - Kbely
Teplota: 13 °C (pocitová: 10.8 °C)
Vítr: 2 m/s z(e) 70°
Počasí: skoro zataženo
Dohlednost: 30 km
Zákl. oblačnosti: 2/8 3300 m;6/8 7200 m
Vlhkost: 77%
Praha - Libuš (Praha/Lib) 29.05.2017 03:00 UTC Zobrazit data
Místo: Praha - Libuš
Teplota: 15 °C (pocitová: 13.3 °C)
Vítr: 2 m/s z(e) 0°
Počasí: skorojasno
Dohlednost: 35 km
Zákl. oblačnosti: 1/8 3300 m
Vlhkost: 68%
Praha - Ruzyně (Praha/Ru) 29.05.2017 03:00 UTC Zobrazit data
Místo: Praha - Ruzyně
Teplota: 13 °C (pocitová: 11.7 °C)
Vítr: 1 m/s z(e) 0°
Počasí: oblačno
Dohlednost: 60 km
Zákl. oblačnosti: 1/8 3000 m;3/8 7800 m
Vlhkost: 72%
Přibyslav (Pribyslav) 29.05.2017 03:00 UTC Zobrazit data
Místo: Přibyslav
Teplota: 11 °C (pocitová: 6.7 °C)
Vítr: 4 m/s z(e) 80°
Počasí: skorojasno
Dohlednost: 20 km
Zákl. oblačnosti: 1/8 5100 m
Vlhkost: 77%
Přimda (Primda) 29.05.2017 03:00 UTC Zobrazit data
Místo: Přimda
Teplota: 16 °C (pocitová: 14 °C)
Vítr: 3 m/s z(e) 250°
Počasí:
Dohlednost: 20 km
Zákl. oblačnosti: N/A
Vlhkost: 55%
Šerák (Serak) 29.05.2017 03:00 UTC Zobrazit data
Místo: Šerák
Teplota: 10 °C (pocitová: 3.7 °C)
Vítr: 8 m/s z(e) 230°
Počasí: skoro zataženo
Dohlednost: 20 km
Zákl. oblačnosti: 7/8 5400 m
Vlhkost: 71%
Svratouch (Svratouch) 29.05.2017 03:00 UTC Zobrazit data
Místo: Svratouch
Teplota: 13 °C (pocitová: 9 °C)
Vítr: 5 m/s z(e) 200°
Počasí:
Dohlednost: 35 km
Zákl. oblačnosti: N/A
Vlhkost: 63%
Temelín (Temelin) 29.05.2017 03:00 UTC Zobrazit data
Místo: Temelín
Teplota: 13 °C (pocitová: 11.7 °C)
Vítr: 1 m/s z(e) 170°
Počasí:
Dohlednost: 20 km
Zákl. oblačnosti: N/A
Vlhkost: 72%
Ústí nad Labem - Kočkov (Usti n/L) 29.05.2017 03:00 UTC Zobrazit data
Místo: Ústí nad Labem - Kočkov
Teplota: 15 °C (pocitová: 14.1 °C)
Vítr: 1 m/s z(e) 120°
Počasí:
Dohlednost: 35 km
Zákl. oblačnosti: N/A
Vlhkost: 68%
Ústí nad Orlicí (Usti n/O) 29.05.2017 03:00 UTC Zobrazit data
Místo: Ústí nad Orlicí
Teplota: 9 °C (pocitová: 5.6 °C)
Vítr: 2 m/s z(e) 40°
Počasí: skorojasno
Dohlednost: 20 km
Zákl. oblačnosti: 1/8 5400 m
Vlhkost: 87%
Aalborg (EKYT) 29.05.2017 00:50 UTC Zobrazit METAR
EKYT 290050Z 27014KT 3500 BR FEW002 BKN004 12/12 Q1011
Aarhus (EKAH) 25.05.2017 07:50 UTC Zobrazit METAR
EKAH 250750Z 29010KT 260V330 9999 NSC 15/08 Q1019
Abu Dhabi (OMAA) 29.05.2017 03:00 UTC Zobrazit METAR
OMAA 290300Z 19006KT 150V230 8000 NSC 28/24 Q1002 NOSIG
Abuja (DNAA) 29.05.2017 01:00 UTC Zobrazit METAR
DNAA 290100Z VRB02KT CAVOK 27/23 Q1013 NOSIG
Accra (DGAA) 29.05.2017 03:00 UTC Zobrazit METAR
DGAA 290300Z 25005KT CAVOK 27/25 Q1012 NOSIG
Addis Abeba (HAAB) 29.05.2017 02:00 UTC Zobrazit METAR
HAAB 290200Z 19004KT 3000 BR BKN018 BKN070 13/13 Q1027
Agana (PGUM) 29.05.2017 02:54 UTC Zobrazit METAR
PGUM 290254Z 09012G17KT 10SM FEW025 SCT033 SCT055 31/24 A2988 RMK AO2 SLP109 T03110244 58013 $
Ahe Island (NTHE) Zatím nenačteno  
Akureyri (BIAR) 29.05.2017 03:00 UTC Zobrazit METAR
BIAR 290300Z 22003KT CAVOK 06/03 Q1014
Almaty (UAAA) Zatím nenačteno  
Amman (OJAM) 29.05.2017 03:00 UTC Zobrazit METAR
OJAM 290300Z 00000KT 5000 FU NSC 17/04 Q1015 NOSIG
Amsterdam (EHAM) 29.05.2017 02:55 UTC Zobrazit METAR
EHAM 290255Z 07006KT 040V110 CAVOK 16/14 Q1014 NOSIG
Antananarivo (FMMI) 29.05.2017 03:00 UTC Zobrazit METAR
FMMI 290300Z 00000KT 8000 FEW020 10/10 Q1024 NOSIG
1 2 3 ... 9 Další
Reklama

Počasí na Váš email

Emaily jsou bez reklamy a bez spamu



Odhlásit newsletter

Reklama


Lunární kalendář

  • 01.06.
  • 09.06.
  • 17.06.
  • 24.06.



Jsme na Google Plus

Reklama
Povinné ručení



Může Vás také zajímat:


Reklama